Time;durP1;ratioP1;P1;durP2;ratioP2;P2;SDS_P1;SDS_P2;PMS_P1;PMS_P2;Temp;Humidity;BMP_temperature;BMP_pressure;BME280_temperature;BME280_humidity;BME280_pressure;Samples;Min_cycle;Max_cycle;Signal;HPM_P1;HPM_P2
2023/11/13 00:00:47;;;;;;;2.67;2.07;;;;;;;5.06;88.55;100211.63;5006465;28;20235;-84
2023/11/13 00:03:13;;;;;;;3.00;2.27;;;;;;;5.03;88.65;100217.91;5000714;28;20747;-84
2023/11/13 00:05:40;;;;;;;1.90;1.73;;;;;;;5.00;88.27;100222.50;5006005;28;20211;-85
2023/11/13 00:08:06;;;;;;;4.33;1.80;;;;;;;4.95;88.50;100219.22;4999930;28;20215;-85
2023/11/13 00:10:33;;;;;;;2.50;1.90;;;;;;;4.87;88.90;100216.94;5002797;28;20590;-84
2023/11/13 00:13:00;;;;;;;3.13;2.07;;;;;;;4.80;89.06;100205.81;5007414;28;20227;-83
2023/11/13 00:15:28;;;;;;;2.37;1.73;;;;;;;4.77;89.16;100194.56;5002076;28;20214;-84
2023/11/13 00:17:55;;;;;;;3.77;2.33;;;;;;;4.73;89.56;100180.66;5006380;28;20931;-85
2023/11/13 00:20:21;;;;;;;3.10;2.13;;;;;;;4.66;89.77;100184.47;5011474;28;20227;-84
2023/11/13 00:22:48;;;;;;;3.83;2.37;;;;;;;4.59;89.70;100185.72;5009581;28;20230;-84
2023/11/13 00:25:14;;;;;;;3.07;2.40;;;;;;;4.54;90.00;100177.16;5002680;28;20210;-82
2023/11/13 00:27:41;;;;;;;3.53;2.20;;;;;;;4.47;90.44;100167.81;5004805;28;20206;-84
2023/11/13 00:30:08;;;;;;;5.53;2.27;;;;;;;4.41;90.71;100179.50;5009682;28;20203;-83
2023/11/13 00:32:36;;;;;;;4.20;2.03;;;;;;;4.37;91.11;100184.97;5008903;28;20227;-84
2023/11/13 00:35:02;;;;;;;7.47;2.33;;;;;;;4.33;91.31;100188.66;5005509;28;20207;-83
2023/11/13 00:37:29;;;;;;;4.27;2.37;;;;;;;4.27;91.85;100183.69;5005637;28;20207;-84
2023/11/13 00:39:55;;;;;;;4.50;2.90;;;;;;;4.22;92.45;100190.94;5007524;28;20233;-84
2023/11/13 00:42:22;;;;;;;3.77;2.60;;;;;;;4.18;92.54;100192.84;5003770;28;20223;-84
2023/11/13 00:44:48;;;;;;;5.20;3.00;;;;;;;4.11;92.93;100192.28;5009317;28;20223;-83
2023/11/13 00:47:15;;;;;;;7.30;2.80;;;;;;;4.07;93.12;100192.47;5009156;28;20207;-85
2023/11/13 00:49:43;;;;;;;6.07;2.87;;;;;;;4.04;93.42;100188.19;5002312;28;20207;-84
2023/11/13 00:52:09;;;;;;;4.20;2.87;;;;;;;4.01;93.53;100176.94;5008324;28;20609;-84
2023/11/13 00:54:35;;;;;;;4.40;3.10;;;;;;;4.01;93.54;100167.25;5007791;28;20932;-84
2023/11/13 00:57:02;;;;;;;5.77;2.73;;;;;;;3.99;93.85;100158.53;5006415;28;21522;-84
2023/11/13 00:59:28;;;;;;;4.17;3.03;;;;;;;3.96;93.98;100153.41;5005521;28;20706;-83
2023/11/13 01:01:57;;;;;;;4.03;2.80;;;;;;;3.93;94.20;100172.00;5004182;28;20714;-83
2023/11/13 01:04:23;;;;;;;4.00;3.10;;;;;;;3.89;94.23;100178.34;5006412;28;20293;-83
2023/11/13 01:06:56;;;;;;;6.63;3.40;;;;;;;3.90;94.55;100179.19;5007106;28;20683;-84
2023/11/13 01:09:22;;;;;;;6.50;3.17;;;;;;;3.87;94.62;100177.53;5000893;28;20234;-83
2023/11/13 01:11:50;;;;;;;4.03;2.87;;;;;;;3.85;94.89;100187.28;5004378;28;20223;-84
2023/11/13 01:14:17;;;;;;;5.87;3.63;;;;;;;3.83;95.41;100186.50;5008491;28;20208;-84
2023/11/13 01:16:43;;;;;;;5.63;3.70;;;;;;;3.78;94.82;100201.63;5003182;28;20214;-83
2023/11/13 01:19:10;;;;;;;4.70;3.20;;;;;;;3.75;95.46;100194.72;5006037;28;20554;-83
2023/11/13 01:21:36;;;;;;;5.03;3.07;;;;;;;3.72;95.75;100191.38;5006128;28;20265;-83
2023/11/13 01:24:05;;;;;;;4.63;3.70;;;;;;;3.72;95.83;100186.97;5007360;28;20699;-83
2023/11/13 01:26:32;;;;;;;8.13;4.07;;;;;;;3.67;95.69;100183.66;5004680;28;20221;-83
2023/11/13 01:28:58;;;;;;;5.60;3.40;;;;;;;3.67;95.70;100188.91;5011294;28;20289;-83
2023/11/13 01:31:25;;;;;;;5.20;3.80;;;;;;;3.68;96.43;100176.63;5007937;28;20195;-84
2023/11/13 01:33:51;;;;;;;7.00;3.70;;;;;;;3.69;96.25;100175.69;5008218;28;20213;-83
2023/11/13 01:36:18;;;;;;;5.63;3.53;;;;;;;3.71;96.37;100174.72;5010946;28;20215;-84
2023/11/13 01:38:44;;;;;;;6.53;4.20;;;;;;;3.71;96.35;100171.22;5011403;28;20207;-83
2023/11/13 01:41:12;;;;;;;6.63;4.20;;;;;;;3.70;96.44;100183.53;5004749;28;20223;-84
2023/11/13 01:43:38;;;;;;;7.80;3.67;;;;;;;3.64;96.76;100173.25;5004078;28;20238;-83
2023/11/13 01:46:09;;;;;;;7.40;4.20;;;;;;;3.64;97.32;100172.38;5015531;28;20942;-83
2023/11/13 01:48:36;;;;;;;6.10;3.73;;;;;;;3.63;97.08;100170.69;5006774;28;21425;-83
2023/11/13 01:51:03;;;;;;;4.63;3.77;;;;;;;3.61;97.51;100164.63;5009496;28;20749;-83
2023/11/13 01:53:29;;;;;;;7.50;4.00;;;;;;;3.60;97.35;100163.75;5015627;28;20269;-83
2023/11/13 01:55:58;;;;;;;8.53;4.40;;;;;;;3.59;97.31;100155.91;5004500;28;20211;-83
2023/11/13 01:58:26;;;;;;;7.53;4.20;;;;;;;3.58;97.25;100157.72;5010543;28;20210;-84
2023/11/13 02:00:54;;;;;;;6.93;4.20;;;;;;;3.58;97.38;100177.94;5009919;28;20226;-83
2023/11/13 02:03:21;;;;;;;5.47;4.17;;;;;;;3.56;97.67;100185.03;5011685;28;20609;-83
2023/11/13 02:05:48;;;;;;;5.73;3.70;;;;;;;3.53;97.34;100180.75;5010445;28;20207;-84
2023/11/13 02:08:14;;;;;;;6.67;4.00;;;;;;;3.53;97.22;100169.38;5011500;28;20203;-84
2023/11/13 02:10:41;;;;;;;6.87;4.10;;;;;;;3.49;97.95;100169.50;5010410;28;20210;-83
2023/11/13 02:13:11;;;;;;;9.73;4.27;;;;;;;3.46;97.85;100180.16;5015549;28;20234;-84
2023/11/13 02:15:40;;;;;;;9.23;4.00;;;;;;;3.45;97.45;100167.91;5004934;28;20212;-85
2023/11/13 02:18:07;;;;;;;6.07;3.77;;;;;;;3.45;97.92;100180.22;5016427;28;20210;-84
2023/11/13 02:20:34;;;;;;;5.97;4.10;;;;;;;3.43;97.95;100171.50;5005923;28;20223;-84
2023/11/13 02:23:02;;;;;;;4.50;3.70;;;;;;;3.41;98.24;100163.69;5014012;28;20227;-84
2023/11/13 02:25:36;;;;;;;8.80;4.17;;;;;;;3.40;97.66;100164.59;5008640;28;20214;-84
2023/11/13 02:28:04;;;;;;;5.07;3.80;;;;;;;3.41;97.40;100154.91;5014855;28;20203;-83
2023/11/13 02:30:35;;;;;;;5.33;3.70;;;;;;;3.37;97.65;100159.47;5009072;28;20717;-83
2023/11/13 02:33:02;;;;;;;5.50;3.43;;;;;;;3.37;98.23;100161.25;5017715;28;20226;-83
2023/11/13 02:35:28;;;;;;;5.93;4.00;;;;;;;3.37;98.27;100156.00;5012671;28;20217;-83
2023/11/13 02:37:55;;;;;;;5.20;3.90;;;;;;;3.36;98.02;100141.97;5008806;28;20638;-84
2023/11/13 02:40:22;;;;;;;6.10;3.90;;;;;;;3.37;98.04;100132.31;5010357;28;20586;-83
2023/11/13 02:42:50;;;;;;;6.50;4.73;;;;;;;3.33;98.40;100142.09;5013628;28;20273;-82
2023/11/13 02:45:17;;;;;;;7.17;4.43;;;;;;;3.28;97.85;100143.19;5008384;28;20286;-82
2023/11/13 02:47:44;;;;;;;6.87;4.40;;;;;;;3.25;98.79;100133.66;5016509;28;20588;-83
2023/11/13 02:50:11;;;;;;;8.83;4.43;;;;;;;3.25;98.50;100138.91;5009360;28;20209;-83
2023/11/13 02:52:37;;;;;;;5.83;3.97;;;;;;;3.29;99.13;100134.38;5011344;28;20224;-83
2023/11/13 02:55:05;;;;;;;7.97;4.03;;;;;;;3.33;99.63;100125.44;5012301;28;20210;-83
2023/11/13 02:57:32;;;;;;;6.13;3.93;;;;;;;3.36;100.00;100126.19;5008048;28;20259;-83
2023/11/13 03:00:00;;;;;;;6.70;4.10;;;;;;;3.38;100.00;100124.34;5012947;28;20289;-83
2023/11/13 03:02:25;;;;;;;6.43;4.10;;;;;;;3.43;100.00;100124.13;5009043;28;20715;-83
2023/11/13 03:04:51;;;;;;;7.03;4.20;;;;;;;3.45;100.00;100125.78;5012528;28;20200;-83
2023/11/13 03:07:18;;;;;;;5.63;3.53;;;;;;;3.51;100.00;100114.13;5007285;28;20204;-83
2023/11/13 03:09:44;;;;;;;4.33;3.40;;;;;;;3.58;99.91;100106.84;5008941;28;20466;-82
2023/11/13 03:12:11;;;;;;;6.57;3.40;;;;;;;3.55;100.00;100112.25;5011880;28;20222;-83
2023/11/13 03:14:38;;;;;;;5.40;3.57;;;;;;;3.60;100.00;100118.13;5010242;28;20214;-83
2023/11/13 03:17:05;;;;;;;6.00;4.03;;;;;;;3.58;100.00;100117.38;5014715;28;20581;-83
2023/11/13 03:19:32;;;;;;;7.10;3.33;;;;;;;3.60;100.00;100140.06;5009806;28;20199;-84
2023/11/13 03:21:59;;;;;;;5.03;3.30;;;;;;;3.62;100.00;100140.84;5008896;28;20348;-83
2023/11/13 03:24:25;;;;;;;7.03;3.80;;;;;;;3.62;100.00;100148.75;5005380;28;20203;-84
2023/11/13 03:26:52;;;;;;;5.87;4.03;;;;;;;3.61;100.00;100146.19;5016124;28;20210;-83
2023/11/13 03:29:18;;;;;;;6.73;3.80;;;;;;;3.63;100.00;100152.25;5014451;28;20210;-83
2023/11/13 03:31:45;;;;;;;6.40;3.80;;;;;;;3.64;100.00;100146.91;5017031;28;20227;-84
2023/11/13 03:34:14;;;;;;;5.37;3.10;;;;;;;3.65;100.00;100142.50;5011609;28;20211;-84
2023/11/13 03:36:41;;;;;;;7.30;3.67;;;;;;;3.66;100.00;100142.44;5008520;28;20212;-84
2023/11/13 03:39:08;;;;;;;5.67;3.30;;;;;;;3.66;100.00;100131.06;5014630;28;20202;-84
2023/11/13 03:41:34;;;;;;;8.47;3.83;;;;;;;3.67;100.00;100133.63;5011646;28;20251;-83
2023/11/13 03:44:01;;;;;;;6.40;3.50;;;;;;;3.66;100.00;100134.53;5013210;28;20214;-83
2023/11/13 03:46:27;;;;;;;6.70;3.70;;;;;;;3.64;100.00;100136.38;5007567;28;20206;-83
2023/11/13 03:48:54;;;;;;;8.60;3.90;;;;;;;3.66;100.00;100138.94;5012424;28;20731;-83
2023/11/13 03:51:23;;;;;;;6.57;3.93;;;;;;;3.67;100.00;100136.25;5016418;28;20256;-84
2023/11/13 03:53:49;;;;;;;7.27;3.80;;;;;;;3.68;100.00;100129.22;5013061;28;20206;-83
2023/11/13 03:56:17;;;;;;;7.77;4.07;;;;;;;3.67;99.99;100124.88;5016632;28;20277;-84
2023/11/13 03:58:44;;;;;;;9.50;3.63;;;;;;;3.69;99.92;100123.03;5013900;28;20690;-83
2023/11/13 04:01:10;;;;;;;5.47;3.20;;;;;;;3.66;99.90;100128.41;5011788;28;20241;-83
2023/11/13 04:03:36;;;;;;;6.80;3.50;;;;;;;3.62;100.00;100124.19;5011458;28;20231;-83
2023/11/13 04:06:03;;;;;;;5.17;3.37;;;;;;;3.64;100.00;100125.00;5006797;28;20221;-83
2023/11/13 04:08:31;;;;;;;5.53;3.67;;;;;;;3.59;100.00;100125.19;5010900;28;20214;-83
2023/11/13 04:10:58;;;;;;;3.93;3.03;;;;;;;3.62;99.96;100124.19;5006772;28;20218;-83
2023/11/13 04:13:26;;;;;;;6.80;3.60;;;;;;;3.63;100.00;100124.13;5010775;28;20235;-82
2023/11/13 04:15:53;;;;;;;8.10;3.90;;;;;;;3.59;100.00;100127.81;5017252;28;20264;-83
2023/11/13 04:18:20;;;;;;;8.43;4.57;;;;;;;3.57;100.00;100134.94;5002704;28;20202;-84
2023/11/13 04:20:46;;;;;;;5.23;3.83;;;;;;;3.57;100.00;100134.94;5016863;28;20214;-83
2023/11/13 04:23:13;;;;;;;10.77;5.13;;;;;;;3.57;100.00;100134.09;5010106;28;20258;-83
2023/11/13 04:25:45;;;;;;;7.47;4.23;;;;;;;3.60;100.00;100145.31;5015486;28;20214;-83
2023/11/13 04:28:13;;;;;;;5.07;3.53;;;;;;;3.60;100.00;100147.97;5006141;28;20226;-83
2023/11/13 04:30:40;;;;;;;8.00;4.37;;;;;;;3.56;100.00;100140.28;5013780;28;20199;-83
2023/11/13 04:33:06;;;;;;;7.03;4.40;;;;;;;3.53;100.00;100132.50;5008536;28;20667;-84
2023/11/13 04:35:33;;;;;;;6.70;3.87;;;;;;;3.51;100.00;100122.03;5004796;28;20207;-84
2023/11/13 04:37:59;;;;;;;7.33;3.87;;;;;;;3.55;100.00;100122.78;5010891;28;20213;-84
2023/11/13 04:40:26;;;;;;;7.53;4.37;;;;;;;3.56;100.00;100121.84;5011208;28;20673;-83
2023/11/13 04:42:54;;;;;;;8.47;4.67;;;;;;;3.56;100.00;100114.81;5012720;28;20231;-83
2023/11/13 04:45:20;;;;;;;5.73;4.17;;;;;;;3.59;100.00;100096.22;5008729;28;20206;-83
2023/11/13 04:47:47;;;;;;;9.27;4.33;;;;;;;3.61;100.00;100085.63;5011549;28;20256;-84
2023/11/13 04:50:14;;;;;;;8.30;4.40;;;;;;;3.61;100.00;100094.38;5010519;28;20766;-83
2023/11/13 04:52:41;;;;;;;6.87;4.20;;;;;;;3.62;100.00;100097.88;5009767;28;20227;-83
2023/11/13 04:55:09;;;;;;;7.07;4.60;;;;;;;3.62;100.00;100105.75;5010077;28;20697;-83
2023/11/13 04:57:36;;;;;;;10.07;4.50;;;;;;;3.65;100.00;100095.09;5010691;28;20707;-83
2023/11/13 05:00:05;;;;;;;7.80;4.10;;;;;;;3.62;100.00;100093.47;5011817;28;20213;-83
2023/11/13 05:02:36;;;;;;;6.50;3.60;;;;;;;3.60;100.00;100097.06;5008009;28;20552;-83
2023/11/13 05:05:03;;;;;;;8.03;4.47;;;;;;;3.60;100.00;100100.56;5008604;28;20239;-83
2023/11/13 05:07:30;;;;;;;5.90;3.90;;;;;;;3.66;100.00;100110.84;5011764;28;20680;-83
2023/11/13 05:09:57;;;;;;;6.00;3.93;;;;;;;3.65;100.00;100124.06;5014609;28;20233;-83
2023/11/13 05:12:23;;;;;;;7.33;4.43;;;;;;;3.68;100.00;100124.81;5006752;28;21588;-83
2023/11/13 05:14:50;;;;;;;9.37;4.13;;;;;;;3.65;100.00;100124.06;5006706;28;21528;-83
2023/11/13 05:17:17;;;;;;;5.60;4.03;;;;;;;3.68;100.00;100129.22;5003129;28;20207;-83
2023/11/13 05:19:44;;;;;;;7.77;4.30;;;;;;;3.69;100.00;100129.16;5005133;28;20203;-83
2023/11/13 05:22:10;;;;;;;4.80;3.60;;;;;;;3.70;100.00;100122.97;5013428;28;20234;-83
2023/11/13 05:24:37;;;;;;;6.30;3.97;;;;;;;3.69;100.00;100128.28;5006785;28;20210;-84
2023/11/13 05:27:05;;;;;;;10.03;4.20;;;;;;;3.71;100.00;100131.72;5007226;28;20716;-83
2023/11/13 05:29:32;;;;;;;7.37;4.10;;;;;;;3.71;100.00;100121.19;5002570;28;20686;-83
2023/11/13 05:31:58;;;;;;;7.97;4.23;;;;;;;3.73;100.00;100114.06;5013019;28;20724;-83
2023/11/13 05:34:26;;;;;;;5.90;4.37;;;;;;;3.77;100.00;100113.00;5007886;28;20675;-83
2023/11/13 05:36:53;;;;;;;8.07;3.97;;;;;;;3.80;100.00;100107.59;5008010;28;20207;-83
2023/11/13 05:39:21;;;;;;;6.37;3.80;;;;;;;3.80;100.00;100118.13;5008651;28;20556;-83
2023/11/13 05:41:47;;;;;;;6.97;3.70;;;;;;;3.80;100.00;100104.97;5011338;28;20308;-82
2023/11/13 05:44:14;;;;;;;7.70;3.97;;;;;;;3.78;100.00;100097.13;5014010;28;20210;-84
2023/11/13 05:46:40;;;;;;;7.17;3.80;;;;;;;3.79;100.00;100092.72;5013851;28;20203;-83
2023/11/13 05:49:07;;;;;;;7.20;3.70;;;;;;;3.80;100.00;100091.78;5014930;28;20261;-86
2023/11/13 05:51:35;;;;;;;5.80;3.97;;;;;;;3.81;100.00;100083.81;5012589;28;20206;-82
2023/11/13 05:54:01;;;;;;;10.30;4.40;;;;;;;3.80;100.00;100076.84;5012366;28;20211;-84
2023/11/13 05:56:28;;;;;;;5.97;4.60;;;;;;;3.80;100.00;100068.94;5005650;28;20202;-83
2023/11/13 05:58:54;;;;;;;5.80;4.03;;;;;;;3.81;100.00;100060.13;5017533;28;20290;-79
2023/11/13 06:01:21;;;;;;;5.70;3.87;;;;;;;3.80;100.00;100054.91;5013510;28;20209;-79
2023/11/13 06:03:47;;;;;;;7.17;3.90;;;;;;;3.82;100.00;100055.72;5011581;28;20676;-80
2023/11/13 06:06:14;;;;;;;6.47;4.40;;;;;;;3.84;100.00;100056.50;5016779;28;20705;-81
2023/11/13 06:08:41;;;;;;;7.80;3.87;;;;;;;3.84;100.00;100049.44;5011012;28;20214;-78
2023/11/13 06:11:08;;;;;;;5.87;4.43;;;;;;;3.83;100.00;100053.00;5018209;28;20209;-79
2023/11/13 06:13:35;;;;;;;8.93;4.60;;;;;;;3.80;100.00;100047.00;5009321;28;20229;-80
2023/11/13 06:16:02;;;;;;;6.90;5.53;;;;;;;3.76;100.00;100050.75;5015785;28;20216;-79
2023/11/13 06:18:29;;;;;;;8.57;5.40;;;;;;;3.77;100.00;100053.28;5006392;28;20207;-79
2023/11/13 06:20:55;;;;;;;7.30;4.73;;;;;;;3.79;100.00;100043.53;5007597;28;20203;-79
2023/11/13 06:23:23;;;;;;;9.00;5.47;;;;;;;3.78;100.00;100043.59;5003477;28;20306;-79
2023/11/13 06:25:51;;;;;;;7.50;5.20;;;;;;;3.79;100.00;100051.44;5010747;28;21555;-79
2023/11/13 06:28:17;;;;;;;8.60;4.70;;;;;;;3.82;100.00;100051.28;5009524;28;20208;-79
2023/11/13 06:30:44;;;;;;;6.33;4.53;;;;;;;3.88;100.00;100050.16;5012896;28;20211;-79
2023/11/13 06:33:10;;;;;;;8.30;5.23;;;;;;;3.90;100.00;100045.69;5016910;28;20230;-79
2023/11/13 06:35:37;;;;;;;9.43;5.73;;;;;;;3.91;100.00;100038.66;5007169;28;20210;-79
2023/11/13 06:38:04;;;;;;;7.30;5.20;;;;;;;3.92;100.00;100040.34;5011800;28;20206;-80
2023/11/13 06:40:31;;;;;;;8.27;4.90;;;;;;;3.95;100.00;100038.41;5011455;28;20211;-79
2023/11/13 06:42:58;;;;;;;8.93;5.53;;;;;;;3.96;100.00;100036.63;5013513;28;20703;-79
2023/11/13 06:45:25;;;;;;;8.60;5.57;;;;;;;3.99;100.00;100032.09;5012812;28;20782;-79
2023/11/13 06:47:51;;;;;;;11.37;6.97;;;;;;;4.00;100.00;100022.41;5006493;28;20841;-81
2023/11/13 06:50:18;;;;;;;10.63;7.00;;;;;;;3.98;100.00;100029.50;5014430;28;20202;-79
2023/11/13 06:52:45;;;;;;;8.23;6.57;;;;;;;3.94;100.00;100026.16;5008285;28;20258;-79
2023/11/13 06:55:13;;;;;;;9.03;6.77;;;;;;;3.94;100.00;100018.25;5010095;28;20215;-79
2023/11/13 06:57:40;;;;;;;9.90;6.63;;;;;;;3.93;100.00;100026.25;5008875;28;20233;-79
2023/11/13 07:00:09;;;;;;;12.60;7.23;;;;;;;3.91;100.00;100025.47;5018065;28;20206;-79
2023/11/13 07:02:39;;;;;;;14.50;7.67;;;;;;;3.92;100.00;100025.41;5009402;28;20226;-79
2023/11/13 07:05:07;;;;;;;12.30;6.87;;;;;;;3.91;100.00;100017.56;5015884;28;20238;-80
2023/11/13 07:07:33;;;;;;;13.50;7.13;;;;;;;3.91;100.00;100010.53;5011041;28;20840;-80
2023/11/13 07:10:01;;;;;;;10.97;7.33;;;;;;;3.93;100.00;99999.91;5006908;28;20224;-79
2023/11/13 07:12:29;;;;;;;13.60;7.70;;;;;;;3.93;100.00;99995.50;5012437;28;20222;-80
2023/11/13 07:14:57;;;;;;;12.47;7.47;;;;;;;3.96;100.00;99997.97;5016730;28;20204;-79
2023/11/13 07:17:25;;;;;;;9.77;7.73;;;;;;;3.99;100.00;99982.03;5013593;28;20210;-79
2023/11/13 07:19:51;;;;;;;11.70;7.87;;;;;;;4.01;100.00;99977.53;5017216;28;20210;-80
2023/11/13 07:22:18;;;;;;;12.27;7.97;;;;;;;4.02;100.00;99983.66;5012385;28;20246;-79
2023/11/13 07:24:45;;;;;;;13.07;7.00;;;;;;;4.03;100.00;99980.97;5015409;28;20210;-80
2023/11/13 07:27:12;;;;;;;12.13;7.50;;;;;;;4.05;100.00;99981.75;5014321;28;20270;-80
2023/11/13 07:29:41;;;;;;;11.47;7.50;;;;;;;4.06;100.00;99982.59;5006258;28;20203;-79
2023/11/13 07:32:08;;;;;;;15.83;8.33;;;;;;;4.07;100.00;99992.22;5020270;28;20218;-80
2023/11/13 07:34:36;;;;;;;10.03;7.17;;;;;;;4.07;100.00;99994.84;5014902;28;20213;-80
2023/11/13 07:37:03;;;;;;;10.70;7.27;;;;;;;4.09;100.00;99988.59;5015560;28;20656;-79
2023/11/13 07:39:31;;;;;;;11.30;7.87;;;;;;;4.10;100.00;99998.19;5018610;28;20222;-80
2023/11/13 07:41:58;;;;;;;12.70;7.90;;;;;;;4.11;100.00;100001.69;5009501;28;21010;-80
2023/11/13 07:44:24;;;;;;;11.53;7.87;;;;;;;4.10;100.00;100003.47;5017313;28;20206;-80
2023/11/13 07:46:52;;;;;;;13.60;8.07;;;;;;;4.13;100.00;100015.63;5014924;28;20202;-80
2023/11/13 07:49:18;;;;;;;12.10;8.87;;;;;;;4.13;100.00;100012.97;5002197;28;20203;-80
2023/11/13 07:51:46;;;;;;;13.50;9.07;;;;;;;4.16;100.00;100013.69;5007786;28;20245;-79
2023/11/13 07:54:13;;;;;;;15.33;8.77;;;;;;;4.17;100.00;100009.28;5016051;28;20369;-80
2023/11/13 07:56:39;;;;;;;14.67;8.73;;;;;;;4.19;100.00;100013.56;5014306;28;20583;-80
2023/11/13 07:59:07;;;;;;;16.67;9.73;;;;;;;4.23;100.00;100005.50;5007310;28;20620;-79
2023/11/13 08:01:34;;;;;;;23.80;11.57;;;;;;;4.27;100.00;100009.72;5005464;28;20203;-80
2023/11/13 08:04:00;;;;;;;18.77;11.47;;;;;;;4.32;100.00;99997.16;5011046;28;20234;-80
2023/11/13 08:06:26;;;;;;;22.40;11.73;;;;;;;4.37;100.00;99995.16;5014553;28;20210;-81
2023/11/13 08:08:54;;;;;;;16.13;10.53;;;;;;;4.44;100.00;99988.66;5008914;28;20217;-80
2023/11/13 08:11:22;;;;;;;16.20;9.83;;;;;;;4.51;100.00;99982.16;5005838;28;20602;-79
2023/11/13 08:13:49;;;;;;;15.20;8.80;;;;;;;4.59;100.00;99984.44;5009609;28;20203;-80
2023/11/13 08:16:15;;;;;;;12.60;8.10;;;;;;;4.66;100.00;99970.84;5011963;28;20206;-80
2023/11/13 08:18:42;;;;;;;12.93;8.33;;;;;;;4.75;100.00;99974.81;5000236;28;20219;-79
2023/11/13 08:21:10;;;;;;;14.77;8.07;;;;;;;4.80;100.00;99968.38;5009909;28;20206;-80
2023/11/13 08:23:37;;;;;;;12.20;8.20;;;;;;;4.85;100.00;99950.50;5010510;28;20629;-80
2023/11/13 08:26:05;;;;;;;13.10;8.40;;;;;;;4.91;100.00;99944.09;5006619;28;20238;-80
2023/11/13 08:28:32;;;;;;;11.10;7.70;;;;;;;4.99;100.00;99934.00;5008373;28;20203;-80
2023/11/13 08:30:59;;;;;;;11.67;7.27;;;;;;;5.06;100.00;99931.88;5007471;28;20558;-80
2023/11/13 08:33:26;;;;;;;10.83;7.83;;;;;;;5.13;100.00;99930.63;4996308;28;20223;-84
2023/11/13 08:35:52;;;;;;;12.50;7.40;;;;;;;5.22;100.00;99919.56;4999804;28;20207;-83
2023/11/13 08:38:19;;;;;;;14.67;8.00;;;;;;;5.26;100.00;99917.63;5007030;28;20257;-83
2023/11/13 08:40:49;;;;;;;15.10;7.70;;;;;;;5.34;100.00;99908.38;5006140;28;20202;-83
2023/11/13 08:43:16;;;;;;;10.63;6.70;;;;;;;5.41;100.00;99908.88;5006919;28;20230;-83
2023/11/13 08:45:44;;;;;;;9.80;7.10;;;;;;;5.48;100.00;99900.56;5012019;28;20483;-83
2023/11/13 08:48:11;;;;;;;11.60;7.07;;;;;;;5.53;100.00;99902.97;5008064;28;20198;-83
2023/11/13 08:50:38;;;;;;;14.23;7.83;;;;;;;5.63;100.00;99904.16;5007451;28;20580;-83
2023/11/13 08:53:07;;;;;;;10.63;7.33;;;;;;;5.77;100.00;99901.59;5001644;28;20222;-83
2023/11/13 08:55:35;;;;;;;8.40;7.07;;;;;;;5.89;99.61;99908.91;5004049;28;20575;-83
2023/11/13 08:58:04;;;;;;;9.57;7.10;;;;;;;5.93;99.46;99902.47;5005178;28;20207;-82
2023/11/13 09:00:40;;;;;;;8.93;6.60;;;;;;;6.02;97.48;99890.53;5010589;28;20221;-82
2023/11/13 09:03:09;;;;;;;8.70;6.67;;;;;;;6.07;97.41;99885.00;5001010;28;20239;-83
2023/11/13 09:05:36;;;;;;;9.50;7.03;;;;;;;6.13;96.65;99890.78;4999987;28;20262;-83
2023/11/13 09:08:03;;;;;;;9.17;6.20;;;;;;;6.17;96.12;99889.66;5012023;28;21398;-83
2023/11/13 09:10:29;;;;;;;7.47;6.37;;;;;;;6.19;94.89;99874.56;5007444;28;20550;-84
2023/11/13 09:12:58;;;;;;;15.27;7.90;;;;;;;6.18;95.24;99867.56;5005851;28;20230;-83
2023/11/13 09:15:27;;;;;;;10.13;6.20;;;;;;;6.20;95.57;99863.06;5004123;28;20679;-83
2023/11/13 09:17:58;;;;;;;9.37;6.70;;;;;;;6.28;94.90;99841.44;5009187;28;20223;-83
2023/11/13 09:20:25;;;;;;;9.93;6.50;;;;;;;6.28;94.54;99842.28;5010695;28;20818;-83
2023/11/13 09:22:52;;;;;;;9.90;6.90;;;;;;;6.32;93.65;99836.84;5008682;28;20288;-82
2023/11/13 09:25:19;;;;;;;9.07;6.37;;;;;;;6.33;94.09;99834.09;5001903;28;20230;-83
2023/11/13 09:27:47;;;;;;;8.37;6.23;;;;;;;6.34;93.90;99824.38;5012176;28;20202;-83
2023/11/13 09:30:15;;;;;;;8.33;5.90;;;;;;;6.34;94.08;99816.44;5008743;28;20683;-83
2023/11/13 09:32:44;;;;;;;8.03;6.23;;;;;;;6.37;94.21;99806.53;5004976;28;20246;-83
2023/11/13 09:35:18;;;;;;;10.27;7.00;;;;;;;6.37;94.45;99803.88;5004648;28;20210;-83
2023/11/13 09:37:47;;;;;;;9.37;6.53;;;;;;;6.42;94.38;99811.56;5008204;28;20202;-82
2023/11/13 09:40:15;;;;;;;9.80;6.63;;;;;;;6.39;94.48;99814.38;5007525;28;20480;-83
2023/11/13 09:42:46;;;;;;;10.27;6.73;;;;;;;6.42;96.48;99822.13;5004939;28;20242;-83
2023/11/13 09:45:14;;;;;;;9.00;6.50;;;;;;;6.44;97.51;99826.41;5001993;28;20203;-83
2023/11/13 09:47:44;;;;;;;9.57;6.70;;;;;;;6.43;97.53;99829.13;5008148;28;20202;-82
2023/11/13 09:50:16;;;;;;;9.57;6.77;;;;;;;6.41;97.91;99823.09;5007482;28;20214;-83
2023/11/13 09:52:46;;;;;;;7.90;7.10;;;;;;;6.40;99.09;99835.44;5012327;28;20293;-82
2023/11/13 09:55:18;;;;;;;10.20;7.50;;;;;;;6.36;99.77;99826.00;5005887;28;20270;-82
2023/11/13 09:57:45;;;;;;;9.33;6.67;;;;;;;6.36;99.71;99827.78;5011552;28;20214;-82
2023/11/13 10:00:16;;;;;;;9.17;6.83;;;;;;;6.33;100.00;99830.59;5010005;28;20214;-82
2023/11/13 10:02:46;;;;;;;10.20;6.60;;;;;;;6.34;100.00;99830.50;5010051;28;20242;-83
2023/11/13 10:05:15;;;;;;;7.60;6.43;;;;;;;6.31;99.93;99829.84;5013855;28;20203;-82
2023/11/13 10:07:47;;;;;;;10.37;7.63;;;;;;;6.26;100.00;99824.84;5015922;28;20630;-82
2023/11/13 10:10:19;;;;;;;9.37;7.13;;;;;;;6.21;100.00;99827.75;5016217;28;20194;-83
2023/11/13 10:12:45;;;;;;;9.67;6.73;;;;;;;6.25;100.00;99820.50;5017375;28;20754;-82
2023/11/13 10:15:13;;;;;;;9.27;7.07;;;;;;;6.27;100.00;99815.94;5016777;28;20207;-82
2023/11/13 10:17:43;;;;;;;7.90;6.60;;;;;;;6.26;100.00;99808.97;5016289;28;20285;-82
2023/11/13 10:20:11;;;;;;;7.50;6.53;;;;;;;6.33;100.00;99806.81;5016676;28;20203;-82
2023/11/13 10:22:39;;;;;;;10.17;6.37;;;;;;;6.31;100.00;99803.41;5015498;28;20230;-82
2023/11/13 10:25:11;;;;;;;6.90;5.83;;;;;;;6.32;100.00;99805.09;5016078;28;20225;-83
2023/11/13 10:27:39;;;;;;;7.97;6.40;;;;;;;6.36;100.00;99798.69;4997386;28;20196;-83
2023/11/13 10:30:07;;;;;;;7.67;5.60;;;;;;;6.41;100.00;99794.00;5003033;28;20206;-83
2023/11/13 10:32:33;;;;;;;6.67;5.27;;;;;;;6.41;100.00;99797.47;5016525;28;20696;-82
2023/11/13 10:35:00;;;;;;;9.30;4.43;;;;;;;6.44;100.00;99793.81;5015336;28;20203;-82
2023/11/13 10:37:28;;;;;;;7.43;5.43;;;;;;;6.49;100.00;99781.13;5016201;28;20250;-82
2023/11/13 10:39:57;;;;;;;7.70;5.00;;;;;;;6.48;100.00;99782.06;5015894;28;20555;-83
2023/11/13 10:42:26;;;;;;;6.37;5.30;;;;;;;6.52;100.00;99768.59;5016112;28;20314;-82
2023/11/13 10:44:55;;;;;;;8.27;5.67;;;;;;;6.58;100.00;99770.00;5015695;28;20231;-82
2023/11/13 10:47:23;;;;;;;7.00;5.27;;;;;;;6.62;100.00;99766.25;5014982;28;20302;-82
2023/11/13 10:49:51;;;;;;;9.23;5.83;;;;;;;6.58;100.00;99760.28;5015472;28;20218;-82
2023/11/13 10:52:20;;;;;;;7.03;5.73;;;;;;;6.57;100.00;99742.72;5015603;28;20234;-82
2023/11/13 10:54:48;;;;;;;6.60;5.67;;;;;;;6.56;100.00;99748.94;5015563;28;20242;-82
2023/11/13 10:57:17;;;;;;;7.60;5.77;;;;;;;6.64;100.00;99743.16;5015982;28;20458;-82
2023/11/13 10:59:49;;;;;;;7.30;6.03;;;;;;;6.69;100.00;99734.94;5015275;28;20199;-82
2023/11/13 11:02:24;;;;;;;12.83;8.20;;;;;;;6.73;100.00;99731.19;5015681;28;20231;-82
2023/11/13 11:04:56;;;;;;;8.33;4.97;;;;;;;6.75;100.00;99724.84;5015441;28;20206;-82
2023/11/13 11:07:26;;;;;;;6.40;4.97;;;;;;;6.80;100.00;99717.47;5016419;28;20250;-82
2023/11/13 11:09:56;;;;;;;8.20;4.93;;;;;;;6.80;100.00;99700.75;5016236;28;20303;-82
2023/11/13 11:12:28;;;;;;;6.90;5.10;;;;;;;6.80;100.00;99693.66;5017548;28;20762;-82
2023/11/13 11:15:11;;;;;;;7.87;5.60;;;;;;;6.82;100.00;99680.31;5015862;28;20191;-83
2023/11/13 11:17:43;;;;;;;8.33;5.23;;;;;;;6.81;100.00;99676.81;5015937;28;20245;-82
2023/11/13 11:20:20;;;;;;;8.77;7.17;;;;;;;6.81;100.00;99674.16;5015331;28;20206;-82
2023/11/13 11:22:52;;;;;;;9.43;5.73;;;;;;;6.82;100.00;99678.50;5016139;28;20227;-82
2023/11/13 11:25:35;;;;;;;7.07;5.53;;;;;;;6.78;100.00;99666.44;5015149;28;20273;-82
2023/11/13 11:28:04;;;;;;;7.70;5.60;;;;;;;6.77;100.00;99659.44;5015694;28;20582;-82
2023/11/13 11:30:31;;;;;;;7.23;5.30;;;;;;;6.77;100.00;99659.44;5015904;28;20639;-82